SFJ21 RJOO-RJTT
Flight info
| Callsign | SFJ21 |
|---|---|
| Flight time | 0h 46m |
| Altitude | 27000 |
| Route | ASUKA SHTLE Y71 XAC |
| Aircraft | A20N/M-SDE2E3FGHIRWXY/LB1 |
Departure
| Time | 2026-05-08 10:42 |
|---|---|
| Airport | Osaka Itami International Airport (RJOO) |
Arrival
| Time | 2026-05-08 11:28 |
|---|---|
| Airport | Tokyo Haneda International Airport (RJTT) |
| Time | Latitude | Longitude | Altitude | Speed | Heading |
|---|---|---|---|---|---|
| 2026-05-08 10:30 | 34.78722 | 135.44385 | 48 ft | 0 kts | 348° |
| 2026-05-08 10:34 | 34.78716 | 135.44386 | 48 ft | 4 kts | 348° |
| 2026-05-08 10:35 | 34.78690 | 135.44393 | 46 ft | 4 kts | 344° |
| 2026-05-08 10:35 | 34.78665 | 135.44404 | 48 ft | 4 kts | 334° |
| 2026-05-08 10:35 | 34.78645 | 135.44421 | 48 ft | 4 kts | 283° |
| 2026-05-08 10:35 | 34.78645 | 135.44433 | 48 ft | 1 kts | 225° |
| 2026-05-08 10:36 | 34.78647 | 135.44435 | 48 ft | 0 kts | 225° |
| 2026-05-08 10:39 | 34.78622 | 135.44405 | 48 ft | 15 kts | 225° |
| 2026-05-08 10:39 | 34.78509 | 135.44334 | 48 ft | 21 kts | 180° |
| 2026-05-08 10:39 | 34.78350 | 135.44332 | 49 ft | 24 kts | 181° |
| 2026-05-08 10:40 | 34.78188 | 135.44337 | 48 ft | 20 kts | 168° |
| 2026-05-08 10:40 | 34.78045 | 135.44496 | 48 ft | 37 kts | 135° |
| 2026-05-08 10:40 | 34.77853 | 135.44727 | 48 ft | 40 kts | 136° |
| 2026-05-08 10:40 | 34.77652 | 135.44971 | 47 ft | 41 kts | 135° |
| 2026-05-08 10:41 | 34.77487 | 135.45171 | 48 ft | 25 kts | 135° |
| 2026-05-08 10:41 | 34.77348 | 135.45303 | 47 ft | 26 kts | 164° |
| 2026-05-08 10:41 | 34.77257 | 135.45233 | 46 ft | 12 kts | 263° |
| 2026-05-08 10:41 | 34.77265 | 135.45133 | 50 ft | 11 kts | 313° |
| 2026-05-08 10:42 | 34.77418 | 135.44949 | 48 ft | 70 kts | 315° |
| 2026-05-08 10:42 | 34.77946 | 135.44303 | 48 ft | 142 kts | 314° |
| 2026-05-08 10:42 | 34.78652 | 135.43422 | 797 ft | 143 kts | 313° |
| 2026-05-08 10:42 | 34.78854 | 135.42226 | 1397 ft | 161 kts | 245° |
| 2026-05-08 10:43 | 34.77983 | 135.41425 | 2271 ft | 168 kts | 187° |
| 2026-05-08 10:43 | 34.76858 | 135.41919 | 2991 ft | 192 kts | 135° |
| 2026-05-08 10:43 | 34.76361 | 135.43447 | 3570 ft | 211 kts | 89° |
| 2026-05-08 10:43 | 34.76716 | 135.45262 | 4043 ft | 233 kts | 67° |
| 2026-05-08 10:44 | 34.77417 | 135.47150 | 4573 ft | 256 kts | 63° |
| 2026-05-08 10:44 | 34.78254 | 135.49174 | 5128 ft | 279 kts | 62° |
| 2026-05-08 10:44 | 34.79153 | 135.51321 | 5938 ft | 288 kts | 65° |
| 2026-05-08 10:44 | 34.79678 | 135.53685 | 6873 ft | 292 kts | 84° |
| 2026-05-08 10:45 | 34.79739 | 135.56187 | 7718 ft | 299 kts | 93° |
| 2026-05-08 10:45 | 34.79597 | 135.58743 | 8590 ft | 305 kts | 96° |
| 2026-05-08 10:45 | 34.79397 | 135.61339 | 9473 ft | 312 kts | 97° |
| 2026-05-08 10:45 | 34.79197 | 135.63968 | 10271 ft | 319 kts | 96° |
| 2026-05-08 10:46 | 34.79003 | 135.66745 | 10653 ft | 342 kts | 96° |
| 2026-05-08 10:46 | 34.78823 | 135.69738 | 10924 ft | 366 kts | 92° |
| 2026-05-08 10:46 | 34.78887 | 135.72883 | 11551 ft | 375 kts | 90° |
| 2026-05-08 10:46 | 34.78943 | 135.76082 | 12306 ft | 380 kts | 90° |
| 2026-05-08 10:47 | 34.79017 | 135.79327 | 13045 ft | 387 kts | 89° |
| 2026-05-08 10:47 | 34.79118 | 135.82629 | 13786 ft | 393 kts | 89° |
| 2026-05-08 10:47 | 34.79240 | 135.85982 | 14460 ft | 398 kts | 88° |
| 2026-05-08 10:47 | 34.79373 | 135.89358 | 15104 ft | 402 kts | 88° |
| 2026-05-08 10:48 | 34.79508 | 135.92730 | 15747 ft | 407 kts | 88° |
| 2026-05-08 10:48 | 34.79644 | 135.96229 | 16393 ft | 411 kts | 88° |
| 2026-05-08 10:48 | 34.79777 | 135.99677 | 17009 ft | 415 kts | 88° |
| 2026-05-08 10:48 | 34.79913 | 136.03206 | 17650 ft | 418 kts | 88° |
| 2026-05-08 10:49 | 34.80051 | 136.06774 | 18231 ft | 423 kts | 88° |
| 2026-05-08 10:49 | 34.80187 | 136.10368 | 18715 ft | 429 kts | 88° |
| 2026-05-08 10:49 | 34.80325 | 136.14068 | 18900 ft | 444 kts | 88° |
| 2026-05-08 10:49 | 34.80467 | 136.17883 | 19045 ft | 458 kts | 88° |
| 2026-05-08 10:50 | 34.80612 | 136.21814 | 19193 ft | 472 kts | 88° |
| 2026-05-08 10:50 | 34.80761 | 136.25855 | 19346 ft | 484 kts | 88° |
| 2026-05-08 10:50 | 34.80911 | 136.29974 | 19716 ft | 489 kts | 88° |
| 2026-05-08 10:50 | 34.81054 | 136.33908 | 20155 ft | 491 kts | 88° |
| 2026-05-08 10:51 | 34.81205 | 136.38101 | 20394 ft | 500 kts | 89° |
| 2026-05-08 10:51 | 34.81353 | 136.42291 | 20762 ft | 504 kts | 89° |
| 2026-05-08 10:51 | 34.81502 | 136.46568 | 21185 ft | 507 kts | 89° |
| 2026-05-08 10:51 | 34.81651 | 136.50865 | 21613 ft | 509 kts | 89° |
| 2026-05-08 10:52 | 34.81799 | 136.55183 | 22032 ft | 513 kts | 89° |
| 2026-05-08 10:52 | 34.81947 | 136.59540 | 22484 ft | 517 kts | 89° |
| 2026-05-08 10:52 | 34.82094 | 136.63923 | 23039 ft | 521 kts | 89° |
| 2026-05-08 10:52 | 34.82241 | 136.68345 | 23536 ft | 524 kts | 89° |
| 2026-05-08 10:53 | 34.82388 | 136.72798 | 23972 ft | 528 kts | 89° |
| 2026-05-08 10:53 | 34.82533 | 136.77270 | 24394 ft | 530 kts | 89° |
| 2026-05-08 10:53 | 34.82678 | 136.81769 | 24817 ft | 533 kts | 89° |
| 2026-05-08 10:53 | 34.82821 | 136.86269 | 25245 ft | 532 kts | 89° |
| 2026-05-08 10:54 | 34.82962 | 136.90744 | 25782 ft | 528 kts | 90° |
| 2026-05-08 10:54 | 34.82954 | 136.95217 | 25985 ft | 530 kts | 95° |
| 2026-05-08 10:54 | 34.82561 | 136.99683 | 26181 ft | 530 kts | 101° |
| 2026-05-08 10:54 | 34.82051 | 137.04135 | 26420 ft | 530 kts | 100° |
| 2026-05-08 10:55 | 34.81555 | 137.08583 | 26614 ft | 531 kts | 100° |
| 2026-05-08 10:55 | 34.81060 | 137.13042 | 26818 ft | 531 kts | 100° |
| 2026-05-08 10:55 | 34.80566 | 137.17485 | 26848 ft | 530 kts | 100° |
| 2026-05-08 10:55 | 34.80070 | 137.21919 | 26842 ft | 528 kts | 100° |
| 2026-05-08 10:56 | 34.79578 | 137.26293 | 26837 ft | 528 kts | 100° |
| 2026-05-08 10:56 | 34.79078 | 137.30712 | 26834 ft | 528 kts | 100° |
| 2026-05-08 10:56 | 34.78570 | 137.35193 | 26835 ft | 527 kts | 100° |
| 2026-05-08 10:56 | 34.78078 | 137.39514 | 26829 ft | 520 kts | 100° |
| 2026-05-08 10:57 | 34.77583 | 137.43857 | 26827 ft | 515 kts | 100° |
| 2026-05-08 10:57 | 34.77090 | 137.48161 | 26828 ft | 514 kts | 100° |
| 2026-05-08 10:57 | 34.76097 | 137.56776 | 26818 ft | 513 kts | 100° |
| 2026-05-08 10:58 | 34.75600 | 137.61075 | 26820 ft | 513 kts | 100° |
| 2026-05-08 10:58 | 34.75101 | 137.65371 | 26813 ft | 513 kts | 100° |
| 2026-05-08 10:58 | 34.74605 | 137.69671 | 26810 ft | 513 kts | 99° |
| 2026-05-08 10:58 | 34.74173 | 137.73976 | 26806 ft | 512 kts | 98° |
| 2026-05-08 10:59 | 34.73780 | 137.78278 | 26801 ft | 512 kts | 98° |
| 2026-05-08 10:59 | 34.73389 | 137.82581 | 26792 ft | 512 kts | 98° |
| 2026-05-08 10:59 | 34.72992 | 137.86877 | 26783 ft | 512 kts | 98° |
| 2026-05-08 10:59 | 34.72585 | 137.91182 | 26776 ft | 511 kts | 99° |
| 2026-05-08 11:00 | 34.72174 | 137.95473 | 26770 ft | 511 kts | 99° |
| 2026-05-08 11:00 | 34.71898 | 137.98323 | 26762 ft | 512 kts | 99° |
| 2026-05-08 11:00 | 34.71515 | 138.02615 | 26756 ft | 512 kts | 96° |
| 2026-05-08 11:00 | 34.71455 | 138.08380 | 26675 ft | 517 kts | 91° |
| 2026-05-08 11:01 | 34.71479 | 138.12699 | 26739 ft | 505 kts | 91° |
| 2026-05-08 11:01 | 34.71500 | 138.16966 | 26740 ft | 505 kts | 92° |
| 2026-05-08 11:01 | 34.71515 | 138.21243 | 26747 ft | 507 kts | 92° |
| 2026-05-08 11:01 | 34.71528 | 138.25532 | 26745 ft | 507 kts | 92° |
| 2026-05-08 11:02 | 34.71535 | 138.28379 | 26747 ft | 507 kts | 92° |
| 2026-05-08 11:02 | 34.71554 | 138.36939 | 26757 ft | 507 kts | 92° |
| 2026-05-08 11:02 | 34.71562 | 138.41230 | 26768 ft | 507 kts | 92° |
| 2026-05-08 11:03 | 34.71569 | 138.46918 | 26764 ft | 507 kts | 92° |
| 2026-05-08 11:03 | 34.71573 | 138.51204 | 26771 ft | 507 kts | 92° |
| 2026-05-08 11:03 | 34.71575 | 138.54097 | 26773 ft | 507 kts | 92° |
| 2026-05-08 11:03 | 34.71576 | 138.58383 | 26781 ft | 507 kts | 92° |
| 2026-05-08 11:04 | 34.71576 | 138.62682 | 26780 ft | 508 kts | 92° |
| 2026-05-08 11:04 | 34.71575 | 138.66972 | 26785 ft | 507 kts | 92° |
| 2026-05-08 11:04 | 34.71572 | 138.71266 | 26780 ft | 507 kts | 92° |
| 2026-05-08 11:04 | 34.71567 | 138.75499 | 26792 ft | 508 kts | 92° |
| 2026-05-08 11:05 | 34.71561 | 138.79801 | 26778 ft | 508 kts | 92° |
| 2026-05-08 11:05 | 34.71553 | 138.84105 | 26675 ft | 509 kts | 92° |
| 2026-05-08 11:05 | 34.71538 | 138.88407 | 26317 ft | 505 kts | 92° |
| 2026-05-08 11:05 | 34.71522 | 138.92637 | 25837 ft | 498 kts | 92° |
| 2026-05-08 11:06 | 34.71504 | 138.96834 | 25189 ft | 494 kts | 92° |
| 2026-05-08 11:06 | 34.71483 | 139.00982 | 24534 ft | 489 kts | 92° |
| 2026-05-08 11:06 | 34.71461 | 139.05099 | 23884 ft | 484 kts | 92° |
| 2026-05-08 11:06 | 34.71438 | 139.09181 | 23198 ft | 480 kts | 92° |
| 2026-05-08 11:07 | 34.71415 | 139.13224 | 22425 ft | 476 kts | 92° |
| 2026-05-08 11:07 | 34.71392 | 139.17230 | 21680 ft | 472 kts | 92° |
| 2026-05-08 11:07 | 34.71368 | 139.21194 | 21040 ft | 466 kts | 92° |
| 2026-05-08 11:07 | 34.71343 | 139.25083 | 20449 ft | 466 kts | 92° |
| 2026-05-08 11:08 | 34.71316 | 139.29013 | 19862 ft | 463 kts | 92° |
| 2026-05-08 11:08 | 34.71289 | 139.32916 | 19209 ft | 460 kts | 92° |
| 2026-05-08 11:08 | 34.71262 | 139.36798 | 18603 ft | 456 kts | 91° |
| 2026-05-08 11:08 | 34.71589 | 139.40625 | 17987 ft | 457 kts | 78° |
| 2026-05-08 11:09 | 34.72589 | 139.44275 | 17345 ft | 454 kts | 64° |
| 2026-05-08 11:09 | 34.74083 | 139.47657 | 16738 ft | 453 kts | 60° |
| 2026-05-08 11:09 | 34.75614 | 139.50986 | 16138 ft | 449 kts | 60° |
| 2026-05-08 11:09 | 34.77134 | 139.54296 | 15540 ft | 446 kts | 60° |
| 2026-05-08 11:10 | 34.78642 | 139.57586 | 14963 ft | 444 kts | 60° |
| 2026-05-08 11:10 | 34.80139 | 139.60861 | 14351 ft | 441 kts | 60° |
| 2026-05-08 11:10 | 34.81622 | 139.64111 | 13743 ft | 437 kts | 60° |
| 2026-05-08 11:10 | 34.83136 | 139.67265 | 13150 ft | 435 kts | 53° |
| 2026-05-08 11:11 | 34.85177 | 139.69920 | 12846 ft | 425 kts | 35° |
| 2026-05-08 11:11 | 34.87689 | 139.71738 | 12763 ft | 420 kts | 18° |
| 2026-05-08 11:11 | 34.90427 | 139.72826 | 12753 ft | 405 kts | 10° |
| 2026-05-08 11:11 | 34.93086 | 139.73671 | 12749 ft | 385 kts | 9° |
| 2026-05-08 11:12 | 34.95629 | 139.74506 | 12749 ft | 376 kts | 11° |
| 2026-05-08 11:12 | 34.98104 | 139.75691 | 12743 ft | 388 kts | 24° |
| 2026-05-08 11:12 | 35.00331 | 139.77577 | 12740 ft | 392 kts | 39° |
| 2026-05-08 11:12 | 35.02301 | 139.79895 | 12738 ft | 394 kts | 42° |
| 2026-05-08 11:13 | 35.04258 | 139.82237 | 12733 ft | 394 kts | 42° |
| 2026-05-08 11:13 | 35.06219 | 139.84581 | 12729 ft | 394 kts | 42° |
| 2026-05-08 11:13 | 35.07944 | 139.87124 | 12726 ft | 397 kts | 59° |
| 2026-05-08 11:13 | 35.08960 | 139.90247 | 12725 ft | 397 kts | 79° |
| 2026-05-08 11:14 | 35.09623 | 139.93525 | 12595 ft | 399 kts | 69° |
| 2026-05-08 11:14 | 35.10977 | 139.96400 | 12343 ft | 393 kts | 48° |
| 2026-05-08 11:14 | 35.12945 | 139.98658 | 12112 ft | 386 kts | 35° |
| 2026-05-08 11:14 | 35.15090 | 140.00619 | 11861 ft | 384 kts | 32° |
| 2026-05-08 11:15 | 35.17257 | 140.02543 | 11417 ft | 385 kts | 33° |
| 2026-05-08 11:15 | 35.19414 | 140.04512 | 10758 ft | 389 kts | 34° |
| 2026-05-08 11:15 | 35.21561 | 140.06536 | 10170 ft | 389 kts | 35° |
| 2026-05-08 11:15 | 35.23649 | 140.08552 | 10001 ft | 375 kts | 36° |
| 2026-05-08 11:16 | 35.25645 | 140.10500 | 9880 ft | 361 kts | 36° |
| 2026-05-08 11:16 | 35.27571 | 140.12385 | 9771 ft | 347 kts | 36° |
| 2026-05-08 11:16 | 35.29399 | 140.14175 | 9638 ft | 334 kts | 36° |
| 2026-05-08 11:16 | 35.31190 | 140.15928 | 9441 ft | 325 kts | 36° |
| 2026-05-08 11:17 | 35.32948 | 140.17647 | 9071 ft | 322 kts | 36° |
| 2026-05-08 11:17 | 35.34698 | 140.19357 | 8658 ft | 320 kts | 36° |
| 2026-05-08 11:17 | 35.36461 | 140.20993 | 8271 ft | 315 kts | 26° |
| 2026-05-08 11:17 | 35.38485 | 140.21845 | 7866 ft | 303 kts | 1° |
| 2026-05-08 11:18 | 35.40557 | 140.21765 | 7480 ft | 296 kts | 349° |
| 2026-05-08 11:18 | 35.42570 | 140.21543 | 7345 ft | 288 kts | 349° |
| 2026-05-08 11:18 | 35.44584 | 140.21314 | 7200 ft | 292 kts | 349° |
| 2026-05-08 11:18 | 35.46601 | 140.21093 | 7054 ft | 289 kts | 349° |
| 2026-05-08 11:19 | 35.48602 | 140.20881 | 6909 ft | 288 kts | 350° |
| 2026-05-08 11:19 | 35.50604 | 140.20673 | 6765 ft | 289 kts | 350° |
| 2026-05-08 11:19 | 35.52576 | 140.20466 | 6685 ft | 285 kts | 348° |
| 2026-05-08 11:19 | 35.54462 | 140.19993 | 6607 ft | 270 kts | 338° |
| 2026-05-08 11:20 | 35.56228 | 140.19372 | 6514 ft | 258 kts | 338° |
| 2026-05-08 11:20 | 35.57888 | 140.18701 | 6408 ft | 242 kts | 325° |
| 2026-05-08 11:20 | 35.59092 | 140.17424 | 6305 ft | 219 kts | 298° |
| 2026-05-08 11:20 | 35.59834 | 140.15856 | 6144 ft | 208 kts | 294° |
| 2026-05-08 11:21 | 35.60420 | 140.14261 | 5846 ft | 202 kts | 280° |
| 2026-05-08 11:21 | 35.60572 | 140.12576 | 5517 ft | 198 kts | 265° |
| 2026-05-08 11:21 | 35.60543 | 140.10888 | 5217 ft | 197 kts | 266° |
| 2026-05-08 11:21 | 35.60530 | 140.09246 | 5039 ft | 191 kts | 266° |
| 2026-05-08 11:22 | 35.60522 | 140.07579 | 5016 ft | 199 kts | 266° |
| 2026-05-08 11:22 | 35.60514 | 140.05883 | 4849 ft | 197 kts | 266° |
| 2026-05-08 11:22 | 35.60504 | 140.04239 | 4555 ft | 190 kts | 265° |
| 2026-05-08 11:22 | 35.60428 | 140.02581 | 4268 ft | 196 kts | 264° |
| 2026-05-08 11:23 | 35.60385 | 140.00922 | 3964 ft | 191 kts | 266° |
| 2026-05-08 11:23 | 35.60386 | 139.99366 | 3726 ft | 175 kts | 266° |
| 2026-05-08 11:23 | 35.60384 | 139.97945 | 3466 ft | 159 kts | 265° |
| 2026-05-08 11:23 | 35.60384 | 139.96634 | 3225 ft | 147 kts | 265° |
| 2026-05-08 11:24 | 35.60382 | 139.94976 | 2936 ft | 149 kts | 266° |
| 2026-05-08 11:24 | 35.60383 | 139.93707 | 2711 ft | 148 kts | 265° |
| 2026-05-08 11:24 | 35.60383 | 139.92448 | 2491 ft | 147 kts | 265° |
| 2026-05-08 11:24 | 35.60383 | 139.91195 | 2265 ft | 145 kts | 265° |
| 2026-05-08 11:25 | 35.60382 | 139.89965 | 2040 ft | 144 kts | 265° |
| 2026-05-08 11:25 | 35.60382 | 139.88728 | 1818 ft | 145 kts | 265° |
| 2026-05-08 11:25 | 35.60383 | 139.87477 | 1596 ft | 147 kts | 263° |
| 2026-05-08 11:25 | 35.60383 | 139.86224 | 1382 ft | 147 kts | 263° |
| 2026-05-08 11:26 | 35.60376 | 139.84977 | 1194 ft | 147 kts | 263° |
| 2026-05-08 11:26 | 35.60361 | 139.83727 | 1059 ft | 141 kts | 264° |
| 2026-05-08 11:26 | 35.60336 | 139.82591 | 933 ft | 125 kts | 262° |
| 2026-05-08 11:26 | 35.60135 | 139.81518 | 855 ft | 129 kts | 241° |
| 2026-05-08 11:27 | 35.59691 | 139.80582 | 801 ft | 126 kts | 232° |
| 2026-05-08 11:27 | 35.59102 | 139.79782 | 685 ft | 126 kts | 223° |
| 2026-05-08 11:27 | 35.58416 | 139.79123 | 467 ft | 124 kts | 213° |
| 2026-05-08 11:27 | 35.57733 | 139.78552 | 318 ft | 118 kts | 212° |
| 2026-05-08 11:28 | 35.57069 | 139.77983 | 160 ft | 117 kts | 213° |
| 2026-05-08 11:28 | 35.56401 | 139.77424 | 39 ft | 111 kts | 213° |
| 2026-05-08 11:28 | 35.55909 | 139.76990 | 29 ft | 58 kts | 214° |
| 2026-05-08 11:28 | 35.55656 | 139.76773 | 26 ft | 23 kts | 215° |
| 2026-05-08 11:29 | 35.55520 | 139.76675 | 26 ft | 23 kts | 204° |
| 2026-05-08 11:29 | 35.55436 | 139.76643 | 25 ft | 13 kts | 195° |
| 2026-05-08 11:29 | 35.55325 | 139.76616 | 26 ft | 19 kts | 191° |
| 2026-05-08 11:29 | 35.55161 | 139.76604 | 25 ft | 20 kts | 154° |
| 2026-05-08 11:30 | 35.55155 | 139.76722 | 26 ft | 26 kts | 59° |
| 2026-05-08 11:30 | 35.55249 | 139.76920 | 20 ft | 29 kts | 58° |
| 2026-05-08 11:30 | 35.55323 | 139.77110 | 20 ft | 17 kts | 110° |
| 2026-05-08 11:30 | 35.55218 | 139.77204 | 24 ft | 22 kts | 152° |
| 2026-05-08 11:31 | 35.55006 | 139.77355 | 20 ft | 37 kts | 151° |
| 2026-05-08 11:31 | 35.54785 | 139.77512 | 22 ft | 37 kts | 149° |
| 2026-05-08 11:31 | 35.54558 | 139.77674 | 21 ft | 34 kts | 150° |
| 2026-05-08 11:31 | 35.54371 | 139.77806 | 19 ft | 22 kts | 149° |
| 2026-05-08 11:32 | 35.54191 | 139.77932 | 20 ft | 36 kts | 150° |
| 2026-05-08 11:32 | 35.54074 | 139.78100 | 19 ft | 22 kts | 67° |
| 2026-05-08 11:32 | 35.54148 | 139.78255 | 22 ft | 22 kts | 63° |
| 2026-05-08 11:32 | 35.54258 | 139.78488 | 27 ft | 35 kts | 60° |
| 2026-05-08 11:33 | 35.54356 | 139.78694 | 31 ft | 28 kts | 60° |
| 2026-05-08 11:33 | 35.54417 | 139.78787 | 31 ft | 7 kts | 12° |
| 2026-05-08 11:33 | 35.54492 | 139.78744 | 30 ft | 16 kts | 329° |
| 2026-05-08 11:33 | 35.54540 | 139.78709 | 29 ft | 0 kts | 329° |